This is the latest recevied weather packets stored in our database for station/object HS1AXC-1. If no packets are shown the sender has not sent any weather packets the latest 1 day(s).
| Time | Temp. | Humidity | Pressure | Rain* | Wind** | Luminosity | Snow |
|---|---|---|---|---|---|---|---|
| 1778042151 | 38.33° C | 56% | 1009 hPa | - | - | 1 W/m² | - |
| 1778041512 | 37.22° C | 60% | 1009 hPa | - | - | 1 W/m² | - |
| 1778040890 | 37.78° C | 58% | 1009 hPa | - | - | 1 W/m² | - |
| 1778040268 | 37.22° C | 59% | 1010 hPa | - | - | 1 W/m² | - |
| 1778038891 | 36.67° C | 64% | 1010 hPa | - | - | 1 W/m² | - |
| 1778038269 | 36.11° C | 66% | 1010 hPa | - | - | 1 W/m² | - |
| 1778037647 | 36.67° C | 64% | 1010 hPa | - | - | 1 W/m² | - |
| 1778037025 | 36.11° C | 67% | 1010 hPa | - | - | 1 W/m² | - |
| 1778035781 | 35.56° C | 69% | 1010 hPa | - | - | 0 W/m² | - |
| 1778035159 | 36.11° C | 70% | 1010 hPa | - | - | 2 W/m² | - |
| 1778034537 | 36.67° C | 70% | 1010 hPa | - | - | 2 W/m² | - |
| 1778033915 | 36.11° C | 73% | 1010 hPa | - | - | 2 W/m² | - |
| 1778033293 | 35.56° C | 73% | 1010 hPa | - | - | 2 W/m² | - |
| 1778032671 | 35° C | 76% | 1010 hPa | - | - | 2 W/m² | - |
| 1778032049 | 35° C | 76% | 1010 hPa | - | - | 2 W/m² | - |
| 1778030805 | 35° C | 76% | 1010 hPa | - | - | 1 W/m² | - |
| 1778029560 | 34.44° C | 76% | 1010 hPa | - | - | 1 W/m² | - |
| 1778028940 | 34.44° C | 76% | 1010 hPa | - | - | 1 W/m² | - |
| 1778027072 | 33.89° C | 80% | 1010 hPa | - | - | 1 W/m² | - |
| 1778022718 | 32.78° C | 86% | 1009 hPa | - | - | 0 W/m² | - |
| 1778021474 | 32.78° C | 88% | 1009 hPa | - | - | 0 W/m² | - |
| 1778020852 | 33.33° C | 88% | 1009 hPa | - | - | 0 W/m² | - |
| 1778020230 | 33.33° C | 87% | 1008 hPa | - | - | 0 W/m² | - |
| 1778019608 | 33.33° C | 87% | 1008 hPa | - | - | 0 W/m² | - |
| 1778018986 | 33.33° C | 87% | 1008 hPa | - | - | 0 W/m² | - |
* Rain since midnight (hover to see other rain measurements)
** Current wind speed in m/s (hover to see current wind gust speed)